createdAt,value
2023-04-02T00:01:37.508Z,99924.00
2023-04-02T00:04:16.538Z,99939.94
2023-04-02T00:06:44.658Z,99937.69
2023-04-02T00:09:24.196Z,99955.75
2023-04-02T00:11:52.416Z,99951.44
2023-04-02T00:14:24.001Z,99957.41
2023-04-02T00:16:51.816Z,99947.53
2023-04-02T00:19:23.823Z,99956.41
2023-04-02T00:21:52.951Z,99956.72
2023-04-02T00:24:21.787Z,99959.50
2023-04-02T00:26:50.710Z,99964.22
2023-04-02T00:29:18.048Z,99964.25
2023-04-02T00:31:47.550Z,99969.91
2023-04-02T00:34:20.782Z,99980.19
2023-04-02T00:36:48.408Z,99982.56
2023-04-02T00:39:21.433Z,99988.53
2023-04-02T00:41:49.428Z,99992.13
2023-04-02T00:44:17.466Z,99986.47
2023-04-02T00:46:45.771Z,99990.06
2023-04-02T00:49:21.303Z,99976.06
2023-04-02T00:51:52.545Z,99977.47
2023-04-02T00:54:23.045Z,100011.13
2023-04-02T00:56:53.799Z,100003.22
2023-04-02T00:59:27.436Z,100004.88
2023-04-02T01:01:59.175Z,100014.59
2023-04-02T01:04:32.315Z,100015.56
2023-04-02T01:07:00.319Z,100016.53
2023-04-02T01:09:44.748Z,100012.91
2023-04-02T01:12:29.944Z,100017.53
2023-04-02T01:15:03.643Z,100029.88
2023-04-02T01:17:42.688Z,100029.03
2023-04-02T01:20:49.675Z,100032.09
2023-04-02T01:23:21.264Z,100032.22
2023-04-02T01:25:57.192Z,100036.38
2023-04-02T01:28:27.976Z,100003.56
2023-04-02T01:30:58.565Z,100044.44
2023-04-02T01:33:32.334Z,100050.69
2023-04-02T01:36:06.908Z,100054.00
2023-04-02T01:38:38.534Z,100056.78
2023-04-02T01:41:09.584Z,100057.63
2023-04-02T01:43:44.196Z,100057.63
2023-04-02T01:46:26.634Z,100064.69
2023-04-02T01:48:55.060Z,100052.91
2023-04-02T01:51:31.572Z,100069.00
2023-04-02T01:54:02.955Z,100071.63
2023-04-02T01:56:30.409Z,100077.72
2023-04-02T01:58:58.324Z,100080.34
2023-04-02T02:01:33.068Z,100080.34
2023-04-02T02:04:01.738Z,100089.25
2023-04-02T02:06:28.855Z,100094.53
2023-04-02T02:09:00.846Z,100081.34
2023-04-02T02:11:30.335Z,100104.22
2023-04-02T02:13:58.818Z,100114.78
2023-04-02T02:16:26.899Z,100118.38
2023-04-02T02:18:57.708Z,100119.19
2023-04-02T02:21:37.005Z,100119.75
2023-04-02T02:24:06.720Z,100122.94
2023-04-02T02:26:34.967Z,100129.47
2023-04-02T02:29:07.295Z,100135.16
2023-04-02T02:31:36.491Z,100136.25
2023-04-02T02:34:12.378Z,100144.84
2023-04-02T02:36:47.070Z,100137.25
2023-04-02T02:39:21.110Z,100152.75
2023-04-02T02:41:54.708Z,100157.19
2023-04-02T02:44:25.711Z,100166.63
2023-04-02T02:46:58.469Z,100135.16
2023-04-02T02:49:30.276Z,100165.50
2023-04-02T02:52:04.063Z,100171.22
2023-04-02T02:54:43.986Z,100172.06
2023-04-02T02:57:17.928Z,100182.59
2023-04-02T02:59:47.103Z,100183.44
2023-04-02T03:02:15.798Z,100198.41
2023-04-02T03:04:48.981Z,100195.34
2023-04-02T03:07:19.021Z,100201.72
2023-04-02T03:09:53.678Z,100203.50
2023-04-02T03:12:40.544Z,100197.94
2023-04-02T03:15:17.214Z,100203.50
2023-04-02T03:17:51.535Z,100216.13
2023-04-02T03:20:30.960Z,100220.44
2023-04-02T03:23:06.030Z,100221.66
2023-04-02T03:25:41.112Z,100189.03
2023-04-02T03:28:14.123Z,100234.59
2023-04-02T03:30:46.620Z,100240.56
2023-04-02T03:33:23.857Z,100242.19
2023-04-02T03:36:00.047Z,100251.94
2023-04-02T03:38:30.138Z,100256.22
2023-04-02T03:41:03.593Z,100262.31
2023-04-02T03:43:37.040Z,100263.03
2023-04-02T03:46:16.079Z,100249.97
2023-04-02T03:48:46.031Z,100264.94
2023-04-02T03:51:21.522Z,100258.72
2023-04-02T03:53:49.177Z,100259.56
2023-04-02T03:56:26.428Z,100271.59
2023-04-02T03:59:00.930Z,100281.59
2023-04-02T04:01:33.041Z,100284.22
2023-04-02T04:04:06.792Z,100292.44
2023-04-02T04:06:41.177Z,100283.81
2023-04-02T04:09:11.763Z,100289.50
2023-04-02T04:11:43.939Z,100309.75
2023-04-02T04:14:17.582Z,100311.72
2023-04-02T04:16:49.185Z,100316.81
2023-04-02T04:19:17.341Z,100322.78
2023-04-02T04:21:46.081Z,100324.72
2023-04-02T04:24:22.908Z,100320.94
2023-04-02T04:26:58.467Z,100342.03
2023-04-02T04:29:34.054Z,100349.78
2023-04-02T04:32:17.843Z,100334.22
2023-04-02T04:34:48.954Z,100349.56
2023-04-02T04:37:23.182Z,100363.50
2023-04-02T04:39:56.206Z,100362.38
2023-04-02T04:42:26.919Z,100350.47
2023-04-02T04:45:01.027Z,100388.69
2023-04-02T04:47:33.239Z,100384.06
2023-04-02T04:50:07.396Z,100389.28
2023-04-02T04:52:42.391Z,100399.94
2023-04-02T04:55:26.722Z,100389.28
2023-04-02T04:57:59.944Z,100408.78
2023-04-02T05:00:35.218Z,100384.41
2023-04-02T05:03:08.824Z,100409.09
2023-04-02T05:05:39.322Z,100435.63
2023-04-02T05:08:14.462Z,100445.72
2023-04-02T05:10:45.923Z,100449.72
2023-04-02T05:13:20.659Z,100453.69
2023-04-02T05:15:55.029Z,100465.41
2023-04-02T05:18:28.439Z,100442.16
2023-04-02T05:21:02.860Z,100472.59
2023-04-02T05:23:37.085Z,100474.53
2023-04-02T05:26:08.686Z,100484.09
2023-04-02T05:28:40.707Z,100477.94
2023-04-02T05:31:11.983Z,100487.63
2023-04-02T05:33:39.810Z,100471.97
2023-04-02T05:36:11.656Z,100509.84
2023-04-02T05:38:49.871Z,100516.44
2023-04-02T05:41:26.311Z,100520.66
2023-04-02T05:44:06.048Z,100521.47
2023-04-02T05:46:41.394Z,100532.00
2023-04-02T05:49:15.983Z,100533.66
2023-04-02T05:51:46.964Z,100535.44
2023-04-02T05:54:22.136Z,100538.94
2023-04-02T05:56:54.586Z,100543.94
2023-04-02T05:59:22.885Z,100548.63
2023-04-02T06:01:55.503Z,100546.09
2023-04-02T06:04:35.488Z,100567.28
2023-04-02T06:07:08.177Z,100575.41
2023-04-02T06:09:43.392Z,100566.91
2023-04-02T06:12:22.608Z,100585.91
2023-04-02T06:14:50.146Z,100578.88
2023-04-02T06:17:19.466Z,100603.75
2023-04-02T06:19:46.439Z,100604.22
2023-04-02T06:22:24.204Z,100597.84
2023-04-02T06:25:01.542Z,100617.69
2023-04-02T06:27:30.553Z,100619.84
2023-04-02T06:30:02.665Z,100632.38
2023-04-02T06:32:31.263Z,100630.34
2023-04-02T06:34:57.994Z,100636.91
2023-04-02T06:37:30.263Z,100631.44
2023-04-02T06:40:32.010Z,100639.53
2023-04-02T06:43:05.713Z,100651.75
2023-04-02T06:45:58.085Z,100657.13
2023-04-02T06:48:47.531Z,100619.66
2023-04-02T06:51:18.174Z,100664.31
2023-04-02T06:53:48.261Z,100675.31
2023-04-02T06:56:25.472Z,100656.72
2023-04-02T06:58:52.136Z,100690.59
2023-04-02T07:01:24.041Z,100696.56
2023-04-02T07:03:51.493Z,100698.59
2023-04-02T07:06:23.559Z,100707.31
2023-04-02T07:08:53.156Z,100722.00
2023-04-02T07:11:23.182Z,100713.63
2023-04-02T07:13:52.815Z,100731.69
2023-04-02T07:16:21.966Z,100720.69
2023-04-02T07:18:49.524Z,100736.34
2023-04-02T07:21:16.688Z,100751.19
2023-04-02T07:23:44.494Z,100706.16
2023-04-02T07:26:14.781Z,100748.28
2023-04-02T07:28:43.016Z,100760.03
2023-04-02T07:31:16.174Z,100773.19
2023-04-02T07:33:43.372Z,100763.75
2023-04-02T07:36:13.957Z,100772.50
2023-04-02T07:38:40.579Z,100783.41
2023-04-02T07:41:07.832Z,100765.78
2023-04-02T07:43:34.466Z,100775.03
2023-04-02T07:46:02.843Z,100794.59
2023-04-02T07:48:29.702Z,100798.31
2023-04-02T07:50:56.413Z,100805.25
2023-04-02T07:53:28.851Z,100812.53
2023-04-02T07:55:55.775Z,100817.59
2023-04-02T07:58:22.388Z,100823.13
2023-04-02T08:00:49.148Z,100823.72
2023-04-02T08:03:17.135Z,100835.56
2023-04-02T08:05:49.052Z,100827.78
2023-04-02T08:08:15.645Z,100843.56
2023-04-02T08:10:42.224Z,100846.66
2023-04-02T08:13:08.844Z,100844.66
2023-04-02T08:15:35.485Z,100857.81
2023-04-02T08:18:02.415Z,100860.91
2023-04-02T08:20:30.399Z,100868.31
2023-04-02T08:22:57.289Z,100877.41
2023-04-02T08:25:24.179Z,100882.84
2023-04-02T08:27:50.808Z,100893.75
2023-04-02T08:30:17.686Z,100891.81
2023-04-02T08:32:44.385Z,100893.00
2023-04-02T08:35:15.761Z,100901.75
2023-04-02T08:37:44.077Z,100896.44
2023-04-02T08:40:21.437Z,100919.44
2023-04-02T08:43:03.921Z,100919.06
2023-04-02T08:45:41.547Z,100926.94
2023-04-02T08:48:10.737Z,100937.53
2023-04-02T08:50:40.055Z,100941.75
2023-04-02T08:53:16.055Z,100942.59
2023-04-02T08:55:48.284Z,100951.69
2023-04-02T08:58:26.184Z,100954.69
2023-04-02T09:00:55.302Z,100964.47
2023-04-02T09:03:28.358Z,100948.19
2023-04-02T09:05:56.392Z,100972.97
2023-04-02T09:08:26.612Z,100975.63
2023-04-02T09:10:58.598Z,100987.09
2023-04-02T09:13:28.352Z,100990.00
2023-04-02T09:16:01.228Z,100991.53
2023-04-02T09:18:30.283Z,100995.72
2023-04-02T09:20:56.899Z,101002.31
2023-04-02T09:23:27.264Z,100996.56
2023-04-02T09:26:03.700Z,100966.44
2023-04-02T09:28:31.590Z,101016.66
2023-04-02T09:31:12.259Z,101021.00
2023-04-02T09:33:44.516Z,101022.88
2023-04-02T09:36:32.239Z,101034.00
2023-04-02T09:39:04.540Z,101015.09
2023-04-02T09:41:31.248Z,101037.38
2023-04-02T09:44:28.365Z,101041.91
2023-04-02T09:46:56.567Z,101040.09
2023-04-02T09:49:26.589Z,101061.66
2023-04-02T09:52:19.731Z,101065.88
2023-04-02T09:55:04.610Z,101071.75
2023-04-02T09:57:31.342Z,101077.16
2023-04-02T10:00:14.623Z,101087.00
2023-04-02T10:03:01.640Z,101098.59
2023-04-02T10:05:39.885Z,101104.16
2023-04-02T10:08:16.522Z,101109.56
2023-04-02T10:10:49.399Z,101116.38
2023-04-02T10:13:21.384Z,101098.81
2023-04-02T10:15:53.516Z,101127.31
2023-04-02T10:18:27.835Z,101122.72
2023-04-02T10:20:55.780Z,101134.38
2023-04-02T10:23:27.639Z,101145.31
2023-04-02T10:26:01.004Z,101154.28
2023-04-02T10:28:43.672Z,101153.31
2023-04-02T10:31:15.847Z,101156.91
2023-04-02T10:33:47.268Z,101164.38
2023-04-02T10:36:23.633Z,101158.03
2023-04-02T10:38:53.016Z,101174.38
2023-04-02T10:41:31.214Z,101174.88
2023-04-02T10:44:20.614Z,101174.13
2023-04-02T10:46:58.208Z,101180.75
2023-04-02T10:49:35.473Z,101176.88
2023-04-02T10:52:08.905Z,101164.78
2023-04-02T10:54:45.986Z,101180.78
2023-04-02T10:57:26.258Z,101180.28
2023-04-02T10:59:56.052Z,101199.19
2023-04-02T11:02:39.135Z,101185.22
2023-04-02T11:05:16.996Z,101198.16
2023-04-02T11:07:55.270Z,101212.25
2023-04-02T11:10:22.670Z,101226.75
2023-04-02T11:12:55.581Z,101209.72
2023-04-02T11:15:22.981Z,101231.06
2023-04-02T11:17:50.077Z,101234.00
2023-04-02T11:21:02.778Z,101238.75
2023-04-02T11:23:32.872Z,101228.88
2023-04-02T11:26:41.175Z,101244.53
2023-04-02T11:29:27.092Z,101253.59
2023-04-02T11:32:15.328Z,101253.25
2023-04-02T11:35:23.173Z,101261.91
2023-04-02T11:37:49.916Z,101269.16
2023-04-02T11:40:42.938Z,101268.88
2023-04-02T11:43:45.551Z,101270.75
2023-04-02T11:46:40.954Z,101278.47
2023-04-02T11:49:36.571Z,101283.94
2023-04-02T11:52:12.066Z,101281.97
2023-04-02T11:54:40.361Z,101292.16
2023-04-02T11:57:21.453Z,101300.78
2023-04-02T12:00:00.359Z,101286.69
2023-04-02T12:02:36.120Z,101303.22
2023-04-02T12:05:15.271Z,101305.53
2023-04-02T12:07:59.312Z,101278.50
2023-04-02T12:10:31.905Z,101305.22
2023-04-02T12:12:58.528Z,101306.69
2023-04-02T12:15:42.581Z,101310.06
2023-04-02T12:18:17.061Z,101310.28
2023-04-02T12:20:49.192Z,101317.66
2023-04-02T12:23:21.500Z,101319.88
2023-04-02T12:25:56.330Z,101310.09
2023-04-02T12:28:22.958Z,101329.97
2023-04-02T12:30:51.558Z,101338.06
2023-04-02T12:33:29.629Z,101311.88
2023-04-02T12:35:58.631Z,101335.66
2023-04-02T12:38:27.663Z,101335.22
2023-04-02T12:40:55.590Z,101345.31
2023-04-02T12:43:27.509Z,101352.78
2023-04-02T12:45:55.095Z,101333.81
2023-04-02T12:48:24.273Z,101349.47
2023-04-02T12:50:53.121Z,101357.19
2023-04-02T12:53:22.734Z,101364.25
2023-04-02T12:55:50.783Z,101357.81
2023-04-02T12:58:30.002Z,101362.56
2023-04-02T13:01:10.447Z,101367.72
2023-04-02T13:03:37.185Z,101362.66
2023-04-02T13:06:20.913Z,101349.91
2023-04-02T13:08:47.835Z,101373.41
2023-04-02T13:11:14.597Z,101375.50
2023-04-02T13:13:43.750Z,101354.25
2023-04-02T13:16:27.482Z,101374.38
2023-04-02T13:19:11.088Z,101382.91
2023-04-02T13:21:39.151Z,101381.69
2023-04-02T13:24:16.498Z,101383.97
2023-04-02T13:26:43.188Z,101391.88
2023-04-02T13:29:19.476Z,101398.72
2023-04-02T13:31:46.083Z,101391.03
2023-04-02T13:34:12.651Z,101391.66
2023-04-02T13:36:40.621Z,101380.59
2023-04-02T13:39:07.185Z,101402.75
2023-04-02T13:41:40.593Z,101389.13
2023-04-02T13:44:07.548Z,101389.94
2023-04-02T13:46:35.654Z,101344.38
2023-04-02T13:49:02.369Z,101398.28
2023-04-02T13:51:35.751Z,101393.88
2023-04-02T13:54:09.069Z,101404.56
2023-04-02T13:56:35.799Z,101401.69
2023-04-02T13:59:02.428Z,101396.34
2023-04-02T14:01:29.218Z,101414.88
2023-04-02T14:03:56.021Z,101417.75
2023-04-02T14:06:31.042Z,101424.28
2023-04-02T14:09:04.765Z,101435.84
2023-04-02T14:11:45.915Z,101424.69
2023-04-02T14:14:29.074Z,101432.81
2023-04-02T14:17:09.738Z,101441.56
2023-04-02T14:19:52.532Z,101442.31
2023-04-02T14:22:30.122Z,101449.38
2023-04-02T14:25:09.220Z,101444.28
2023-04-02T14:27:42.716Z,101445.13
2023-04-02T14:30:18.417Z,101446.81
2023-04-02T14:32:53.438Z,101442.59
2023-04-02T14:35:25.736Z,101450.28
2023-04-02T14:38:00.784Z,101461.56
2023-04-02T14:40:36.616Z,101458.38
2023-04-02T14:43:07.926Z,101464.41
2023-04-02T14:45:48.892Z,101467.47
2023-04-02T14:48:27.838Z,101476.75
2023-04-02T14:50:59.643Z,101477.28
2023-04-02T14:53:27.675Z,101479.16
2023-04-02T14:55:59.300Z,101454.94
2023-04-02T14:58:30.934Z,101482.56
2023-04-02T15:01:02.237Z,101486.25
2023-04-02T15:03:33.575Z,101491.31
2023-04-02T15:06:02.332Z,101498.38
2023-04-02T15:08:31.191Z,101491.94
2023-04-02T15:11:08.529Z,101494.06
2023-04-02T15:13:37.971Z,101497.72
2023-04-02T15:16:11.453Z,101498.91
2023-04-02T15:18:38.440Z,101507.84
2023-04-02T15:21:21.632Z,101507.50
2023-04-02T15:23:56.047Z,101505.19
2023-04-02T15:26:31.714Z,101515.53
2023-04-02T15:29:09.266Z,101517.00
2023-04-02T15:31:42.515Z,101519.66
2023-04-02T15:34:23.166Z,101528.81
2023-04-02T15:37:05.187Z,101517.81
2023-04-02T15:39:38.809Z,101534.91
2023-04-02T15:42:16.201Z,101547.31
2023-04-02T15:44:56.939Z,101553.28
2023-04-02T15:47:36.833Z,101551.16
2023-04-02T15:50:16.799Z,101551.88
2023-04-02T15:52:54.227Z,101560.72
2023-04-02T15:55:25.241Z,101567.78
2023-04-02T15:58:22.750Z,101564.81
2023-04-02T16:01:00.733Z,101574.47
2023-04-02T16:03:49.285Z,101582.31
2023-04-02T16:06:38.493Z,101591.97
2023-04-02T16:09:21.291Z,101596.56
2023-04-02T16:11:51.407Z,101611.59
2023-04-02T16:14:26.386Z,101613.56
2023-04-02T16:16:56.246Z,101617.59
2023-04-02T16:19:28.734Z,101627.06
2023-04-02T16:22:02.709Z,101629.31
2023-04-02T16:24:29.347Z,101634.47
2023-04-02T16:26:59.529Z,101638.59
2023-04-02T16:29:53.887Z,101649.00
2023-04-02T16:32:37.964Z,101654.25
2023-04-02T16:35:40.590Z,101667.97
2023-04-02T16:38:14.843Z,101659.72
2023-04-02T16:40:57.190Z,101662.78
2023-04-02T16:43:37.252Z,101675.38
2023-04-02T16:46:13.109Z,101680.22
2023-04-02T16:48:48.570Z,101683.44
2023-04-02T16:51:20.401Z,101689.31
2023-04-02T16:54:01.433Z,101697.59
2023-04-02T16:56:42.393Z,101679.69
2023-04-02T16:59:19.245Z,101715.31
2023-04-02T17:01:57.628Z,101715.31
2023-04-02T17:04:47.184Z,101721.41
2023-04-02T17:07:26.679Z,101722.69
2023-04-02T17:10:02.332Z,101724.78
2023-04-02T17:12:37.252Z,101692.66
2023-04-02T17:15:17.187Z,101733.69
2023-04-02T17:17:58.312Z,101739.94
2023-04-02T17:20:27.313Z,101735.03
2023-04-02T17:22:54.281Z,101744.34
2023-04-02T17:25:25.293Z,101742.72
2023-04-02T17:27:54.939Z,101754.84
2023-04-02T17:30:32.229Z,101760.94
2023-04-02T17:33:00.358Z,101746.00
2023-04-02T17:35:33.159Z,101767.44
2023-04-02T17:38:09.307Z,101775.72
2023-04-02T17:40:41.959Z,101770.91
2023-04-02T17:43:15.662Z,101778.13
2023-04-02T17:45:47.803Z,101780.88
2023-04-02T17:48:21.464Z,101792.34
2023-04-02T17:51:09.437Z,101796.81
2023-04-02T17:53:44.631Z,101794.13
2023-04-02T17:56:26.817Z,101802.06
2023-04-02T17:59:18.958Z,101801.63
2023-04-02T18:01:54.168Z,101802.94
2023-04-02T18:04:34.235Z,101814.75
2023-04-02T18:07:28.604Z,101812.03
2023-04-02T18:10:03.149Z,101824.00
2023-04-02T18:12:47.003Z,101822.31
2023-04-02T18:15:36.252Z,101778.72
2023-04-02T18:18:17.670Z,101815.50
2023-04-02T18:20:57.152Z,101836.47
2023-04-02T18:23:34.467Z,101841.13
2023-04-02T18:26:09.838Z,101843.91
2023-04-02T18:28:51.829Z,101839.03
2023-04-02T18:31:23.408Z,101852.00
2023-04-02T18:34:22.742Z,101858.09
2023-04-02T18:37:04.829Z,101852.09
2023-04-02T18:39:36.175Z,101856.63
2023-04-02T18:42:09.538Z,101869.59
2023-04-02T18:44:50.960Z,101864.72
2023-04-02T18:47:25.015Z,101861.19
2023-04-02T18:49:58.774Z,101872.03
2023-04-02T18:52:28.959Z,101872.97
2023-04-02T18:55:01.163Z,101879.53
2023-04-02T18:57:31.049Z,101872.88
2023-04-02T19:00:03.229Z,101886.69
2023-04-02T19:02:41.352Z,101886.63
2023-04-02T19:05:20.211Z,101868.94
2023-04-02T19:07:51.952Z,101894.47
2023-04-02T19:10:27.577Z,101910.38
2023-04-02T19:12:54.265Z,101906.91
2023-04-02T19:15:23.454Z,101910.16
2023-04-02T19:18:00.409Z,101915.41
2023-04-02T19:20:33.956Z,101908.16
2023-04-02T19:23:18.016Z,101919.56
2023-04-02T19:26:00.030Z,101918.31
2023-04-02T19:28:32.401Z,101910.97
2023-04-02T19:31:12.240Z,101939.22
2023-04-02T19:33:47.964Z,101940.09
2023-04-02T19:36:37.989Z,101881.47
2023-04-02T19:39:37.347Z,101927.09
2023-04-02T19:42:12.780Z,101940.22
2023-04-02T19:44:46.585Z,101923.13
2023-04-02T19:47:14.297Z,101937.38
2023-04-02T19:49:42.365Z,101959.72
2023-04-02T19:52:09.075Z,101959.16
2023-04-02T19:54:38.311Z,101966.94
2023-04-02T19:57:05.624Z,101968.16
2023-04-02T19:59:32.265Z,101958.25
2023-04-02T20:01:59.056Z,101986.56
2023-04-02T20:04:25.746Z,101960.47
2023-04-02T20:06:52.544Z,101974.91
2023-04-02T20:09:19.109Z,101980.50
2023-04-02T20:11:47.070Z,101997.06
2023-04-02T20:14:13.676Z,101994.16
2023-04-02T20:16:40.420Z,101991.75
2023-04-02T20:19:07.046Z,101992.59
2023-04-02T20:21:33.729Z,101998.84
2023-04-02T20:24:00.551Z,101980.75
2023-04-02T20:26:27.423Z,101964.22
2023-04-02T20:28:55.656Z,102012.31
2023-04-02T20:31:22.279Z,102012.66
2023-04-02T20:33:49.155Z,102012.53
2023-04-02T20:36:17.704Z,102018.94
2023-04-02T20:38:44.721Z,102001.09
2023-04-02T20:41:11.360Z,102007.19
2023-04-02T20:43:38.020Z,101993.41
2023-04-02T20:46:06.543Z,102016.31
2023-04-02T20:48:34.813Z,102018.59
2023-04-02T20:51:03.857Z,102018.81
2023-04-02T20:53:32.483Z,102022.72
2023-04-02T20:56:03.010Z,102020.38
2023-04-02T20:58:29.663Z,102027.00
2023-04-02T21:01:07.346Z,102023.03
2023-04-02T21:03:34.142Z,102026.03
2023-04-02T21:06:00.897Z,102017.22
2023-04-02T21:08:27.885Z,102046.63
2023-04-02T21:11:01.428Z,102030.56
2023-04-02T21:13:28.864Z,102043.69
2023-04-02T21:15:55.454Z,102003.13
2023-04-02T21:18:23.502Z,102040.00
2023-04-02T21:20:56.719Z,102047.06
2023-04-02T21:23:23.405Z,102038.09
2023-04-02T21:25:55.615Z,102053.66
2023-04-02T21:28:22.470Z,102005.38
2023-04-02T21:30:49.045Z,102048.88
2023-04-02T21:33:17.339Z,102057.78
2023-04-02T21:35:45.327Z,102035.72
2023-04-02T21:38:12.005Z,102042.81
2023-04-02T21:40:38.749Z,102039.66
2023-04-02T21:43:05.869Z,102054.44
2023-04-02T21:45:32.498Z,102057.31
2023-04-02T21:47:59.205Z,102063.53
2023-04-02T21:50:25.897Z,102046.63
2023-04-02T21:52:54.126Z,102041.78
2023-04-02T21:55:20.734Z,102058.25
2023-04-02T21:57:47.345Z,102060.00
2023-04-02T22:00:14.817Z,102065.31
2023-04-02T22:02:41.526Z,102061.09
2023-04-02T22:05:08.787Z,102065.50
2023-04-02T22:07:35.470Z,102061.25
2023-04-02T22:10:03.857Z,102056.97
2023-04-02T22:12:30.509Z,102054.53
2023-04-02T22:14:57.094Z,102074.66
2023-04-02T22:17:23.815Z,102063.66
2023-04-02T22:19:50.598Z,102076.53
2023-04-02T22:22:17.286Z,102070.63
2023-04-02T22:24:43.839Z,102058.81
2023-04-02T22:27:11.835Z,102061.59
2023-04-02T22:29:38.398Z,102073.66
2023-04-02T22:32:05.365Z,102071.41
2023-04-02T22:34:32.010Z,102061.97
2023-04-02T22:36:58.687Z,102085.28
2023-04-02T22:39:25.236Z,102086.22
2023-04-02T22:41:51.876Z,102087.81
2023-04-02T22:44:19.887Z,102090.41
2023-04-02T22:46:47.013Z,102092.91
2023-04-02T22:49:13.548Z,102096.56
2023-04-02T22:51:40.179Z,102079.50
2023-04-02T22:54:07.764Z,102096.69
2023-04-02T22:56:34.413Z,102089.25
2023-04-02T22:59:00.993Z,102088.41
2023-04-02T23:01:31.664Z,102093.38
2023-04-02T23:03:58.348Z,102097.69
2023-04-02T23:06:25.392Z,102104.44
2023-04-02T23:08:52.324Z,102101.78
2023-04-02T23:11:20.534Z,102111.38
2023-04-02T23:13:49.192Z,102120.16
2023-04-02T23:16:17.042Z,102121.81
2023-04-02T23:18:46.280Z,102102.22
2023-04-02T23:21:13.137Z,102115.03
2023-04-02T23:23:40.123Z,102119.19
2023-04-02T23:26:08.444Z,102120.09
2023-04-02T23:28:36.236Z,102117.41
2023-04-02T23:31:04.134Z,102115.75
2023-04-02T23:33:30.779Z,102115.44
2023-04-02T23:35:58.839Z,102117.84
2023-04-02T23:38:26.110Z,102102.44
2023-04-02T23:40:53.179Z,102101.03
2023-04-02T23:43:19.910Z,102114.63
2023-04-02T23:45:48.388Z,102111.31
2023-04-02T23:48:15.297Z,102118.94
2023-04-02T23:50:41.886Z,102112.72
2023-04-02T23:53:09.830Z,102113.69
2023-04-02T23:55:36.380Z,102113.50
2023-04-02T23:58:03.033Z,102108.50
